sensor_id;sensor_type;location;lat;lon;timestamp;P1;durP1;ratioP1;P2;durP2;ratioP2
25932;SDS011;13731;51.166;4.474;2023-02-01T00:02:01;76.80;;;71.30;;
25932;SDS011;13731;51.166;4.474;2023-02-01T00:04:28;72.47;;;67.43;;
25932;SDS011;13731;51.166;4.474;2023-02-01T00:06:54;69.65;;;64.13;;
25932;SDS011;13731;51.166;4.474;2023-02-01T00:09:19;73.43;;;67.75;;
25932;SDS011;13731;51.166;4.474;2023-02-01T00:11:45;74.78;;;69.03;;
25932;SDS011;13731;51.166;4.474;2023-02-01T00:14:11;68.82;;;63.53;;
25932;SDS011;13731;51.166;4.474;2023-02-01T00:16:37;67.15;;;61.92;;
25932;SDS011;13731;51.166;4.474;2023-02-01T00:19:07;69.55;;;63.42;;
25932;SDS011;13731;51.166;4.474;2023-02-01T00:21:37;77.90;;;71.85;;
25932;SDS011;13731;51.166;4.474;2023-02-01T00:24:03;75.32;;;69.03;;
25932;SDS011;13731;51.166;4.474;2023-02-01T00:26:40;71.03;;;64.68;;
25932;SDS011;13731;51.166;4.474;2023-02-01T00:29:10;70.28;;;65.03;;
25932;SDS011;13731;51.166;4.474;2023-02-01T00:31:44;74.63;;;68.70;;
25932;SDS011;13731;51.166;4.474;2023-02-01T00:34:11;73.80;;;67.75;;
25932;SDS011;13731;51.166;4.474;2023-02-01T00:36:39;76.57;;;69.78;;
25932;SDS011;13731;51.166;4.474;2023-02-01T00:39:06;74.82;;;69.05;;
25932;SDS011;13731;51.166;4.474;2023-02-01T00:41:32;84.80;;;78.28;;
25932;SDS011;13731;51.166;4.474;2023-02-01T00:43:58;81.78;;;75.07;;
25932;SDS011;13731;51.166;4.474;2023-02-01T00:46:24;82.95;;;77.30;;
25932;SDS011;13731;51.166;4.474;2023-02-01T00:48:50;81.35;;;74.60;;
25932;SDS011;13731;51.166;4.474;2023-02-01T00:51:20;86.38;;;79.65;;
25932;SDS011;13731;51.166;4.474;2023-02-01T00:53:47;79.60;;;73.18;;
25932;SDS011;13731;51.166;4.474;2023-02-01T00:56:14;86.10;;;80.00;;
25932;SDS011;13731;51.166;4.474;2023-02-01T00:58:40;86.28;;;79.93;;
25932;SDS011;13731;51.166;4.474;2023-02-01T01:01:17;83.72;;;77.88;;
25932;SDS011;13731;51.166;4.474;2023-02-01T01:03:51;94.50;;;88.05;;
25932;SDS011;13731;51.166;4.474;2023-02-01T01:06:20;74.00;;;69.13;;
25932;SDS011;13731;51.166;4.474;2023-02-01T01:08:48;72.93;;;67.43;;
25932;SDS011;13731;51.166;4.474;2023-02-01T01:11:20;80.00;;;74.37;;
25932;SDS011;13731;51.166;4.474;2023-02-01T01:13:48;81.35;;;75.32;;
25932;SDS011;13731;51.166;4.474;2023-02-01T01:16:16;75.93;;;69.90;;
25932;SDS011;13731;51.166;4.474;2023-02-01T01:18:43;86.95;;;79.88;;
25932;SDS011;13731;51.166;4.474;2023-02-01T01:21:09;74.38;;;68.95;;
25932;SDS011;13731;51.166;4.474;2023-02-01T01:23:37;78.75;;;72.18;;
25932;SDS011;13731;51.166;4.474;2023-02-01T01:26:07;71.53;;;66.07;;
25932;SDS011;13731;51.166;4.474;2023-02-01T01:28:34;73.20;;;67.35;;
25932;SDS011;13731;51.166;4.474;2023-02-01T01:31:00;72.60;;;67.03;;
25932;SDS011;13731;51.166;4.474;2023-02-01T01:33:26;75.35;;;69.50;;
25932;SDS011;13731;51.166;4.474;2023-02-01T01:35:53;67.93;;;63.08;;
25932;SDS011;13731;51.166;4.474;2023-02-01T01:38:18;61.25;;;55.88;;
25932;SDS011;13731;51.166;4.474;2023-02-01T01:40:45;64.20;;;58.40;;
25932;SDS011;13731;51.166;4.474;2023-02-01T01:43:15;63.45;;;57.28;;
25932;SDS011;13731;51.166;4.474;2023-02-01T01:45:42;56.95;;;51.75;;
25932;SDS011;13731;51.166;4.474;2023-02-01T01:48:11;53.85;;;48.53;;
25932;SDS011;13731;51.166;4.474;2023-02-01T01:50:44;57.08;;;52.45;;
25932;SDS011;13731;51.166;4.474;2023-02-01T01:53:16;58.38;;;53.05;;
25932;SDS011;13731;51.166;4.474;2023-02-01T01:55:49;57.75;;;52.28;;
25932;SDS011;13731;51.166;4.474;2023-02-01T01:58:17;53.13;;;48.75;;
25932;SDS011;13731;51.166;4.474;2023-02-01T02:00:48;62.40;;;56.60;;
25932;SDS011;13731;51.166;4.474;2023-02-01T02:03:18;57.53;;;52.63;;
25932;SDS011;13731;51.166;4.474;2023-02-01T02:05:50;62.58;;;56.78;;
25932;SDS011;13731;51.166;4.474;2023-02-01T02:08:19;64.13;;;59.42;;
25932;SDS011;13731;51.166;4.474;2023-02-01T02:10:48;64.15;;;59.72;;
25932;SDS011;13731;51.166;4.474;2023-02-01T02:13:28;62.97;;;57.30;;
25932;SDS011;13731;51.166;4.474;2023-02-01T02:26:56;63.80;;;57.83;;
25932;SDS011;13731;51.166;4.474;2023-02-01T02:38:22;66.65;;;60.10;;
25932;SDS011;13731;51.166;4.474;2023-02-01T02:44:52;71.22;;;66.00;;
25932;SDS011;13731;51.166;4.474;2023-02-01T02:50:29;61.83;;;56.97;;
25932;SDS011;13731;51.166;4.474;2023-02-01T02:53:32;69.10;;;63.33;;
25932;SDS011;13731;51.166;4.474;2023-02-01T02:56:22;68.43;;;62.95;;
25932;SDS011;13731;51.166;4.474;2023-02-01T02:59:09;67.20;;;60.88;;
25932;SDS011;13731;51.166;4.474;2023-02-01T03:01:56;63.72;;;59.00;;
25932;SDS011;13731;51.166;4.474;2023-02-01T03:04:41;62.33;;;57.08;;
25932;SDS011;13731;51.166;4.474;2023-02-01T03:07:10;63.33;;;58.00;;
25932;SDS011;13731;51.166;4.474;2023-02-01T03:09:39;59.85;;;55.05;;
25932;SDS011;13731;51.166;4.474;2023-02-01T03:12:08;62.97;;;57.97;;
25932;SDS011;13731;51.166;4.474;2023-02-01T03:14:57;66.05;;;60.58;;
25932;SDS011;13731;51.166;4.474;2023-02-01T03:17:34;62.80;;;58.00;;
25932;SDS011;13731;51.166;4.474;2023-02-01T03:20:07;63.92;;;59.50;;
25932;SDS011;13731;51.166;4.474;2023-02-01T03:22:39;60.08;;;55.03;;
25932;SDS011;13731;51.166;4.474;2023-02-01T03:25:14;57.35;;;52.63;;
25932;SDS011;13731;51.166;4.474;2023-02-01T03:27:53;60.58;;;55.47;;
25932;SDS011;13731;51.166;4.474;2023-02-01T03:30:26;59.03;;;53.33;;
25932;SDS011;13731;51.166;4.474;2023-02-01T03:32:56;63.63;;;57.78;;
25932;SDS011;13731;51.166;4.474;2023-02-01T03:35:52;59.38;;;54.45;;
25932;SDS011;13731;51.166;4.474;2023-02-01T03:41:11;59.42;;;54.97;;
25932;SDS011;13731;51.166;4.474;2023-02-01T03:44:03;55.33;;;50.55;;
25932;SDS011;13731;51.166;4.474;2023-02-01T03:46:52;62.17;;;57.15;;
25932;SDS011;13731;51.166;4.474;2023-02-01T03:49:29;58.33;;;53.80;;
25932;SDS011;13731;51.166;4.474;2023-02-01T03:51:56;59.53;;;54.70;;
25932;SDS011;13731;51.166;4.474;2023-02-01T03:54:27;53.78;;;49.97;;
25932;SDS011;13731;51.166;4.474;2023-02-01T03:56:54;57.28;;;52.08;;
25932;SDS011;13731;51.166;4.474;2023-02-01T03:59:24;56.42;;;52.33;;
25932;SDS011;13731;51.166;4.474;2023-02-01T04:01:50;59.70;;;54.13;;
25932;SDS011;13731;51.166;4.474;2023-02-01T04:04:18;56.40;;;51.38;;
25932;SDS011;13731;51.166;4.474;2023-02-01T04:06:51;56.10;;;51.40;;
25932;SDS011;13731;51.166;4.474;2023-02-01T04:09:17;53.85;;;49.58;;
25932;SDS011;13731;51.166;4.474;2023-02-01T04:11:43;49.00;;;44.53;;
25932;SDS011;13731;51.166;4.474;2023-02-01T04:14:09;55.45;;;50.60;;
25932;SDS011;13731;51.166;4.474;2023-02-01T04:16:35;52.25;;;48.15;;
25932;SDS011;13731;51.166;4.474;2023-02-01T04:19:03;49.22;;;44.17;;
25932;SDS011;13731;51.166;4.474;2023-02-01T04:21:29;49.28;;;45.38;;
25932;SDS011;13731;51.166;4.474;2023-02-01T04:23:55;57.03;;;51.47;;
25932;SDS011;13731;51.166;4.474;2023-02-01T04:26:21;47.50;;;43.80;;
25932;SDS011;13731;51.166;4.474;2023-02-01T04:28:47;48.60;;;44.35;;
25932;SDS011;13731;51.166;4.474;2023-02-01T04:31:14;53.22;;;47.30;;
25932;SDS011;13731;51.166;4.474;2023-02-01T04:33:40;55.40;;;49.47;;
25932;SDS011;13731;51.166;4.474;2023-02-01T04:36:06;54.65;;;49.97;;
25932;SDS011;13731;51.166;4.474;2023-02-01T04:38:32;50.60;;;45.55;;
25932;SDS011;13731;51.166;4.474;2023-02-01T04:40:59;50.65;;;46.25;;
25932;SDS011;13731;51.166;4.474;2023-02-01T04:43:25;54.05;;;49.42;;
25932;SDS011;13731;51.166;4.474;2023-02-01T04:45:51;51.03;;;46.60;;
25932;SDS011;13731;51.166;4.474;2023-02-01T04:48:19;54.05;;;48.63;;
25932;SDS011;13731;51.166;4.474;2023-02-01T04:50:46;50.83;;;45.92;;
25932;SDS011;13731;51.166;4.474;2023-02-01T04:53:16;48.33;;;43.67;;
25932;SDS011;13731;51.166;4.474;2023-02-01T04:58:08;68.32;;;62.72;;
25932;SDS011;13731;51.166;4.474;2023-02-01T05:00:35;56.22;;;51.28;;
25932;SDS011;13731;51.166;4.474;2023-02-01T05:03:02;60.58;;;54.83;;
25932;SDS011;13731;51.166;4.474;2023-02-01T05:05:28;60.60;;;56.13;;
25932;SDS011;13731;51.166;4.474;2023-02-01T05:07:54;65.05;;;59.25;;
25932;SDS011;13731;51.166;4.474;2023-02-01T05:10:21;73.88;;;68.15;;
25932;SDS011;13731;51.166;4.474;2023-02-01T05:12:46;59.28;;;54.20;;
25932;SDS011;13731;51.166;4.474;2023-02-01T05:15:31;58.13;;;53.38;;
25932;SDS011;13731;51.166;4.474;2023-02-01T05:17:57;60.35;;;55.40;;
25932;SDS011;13731;51.166;4.474;2023-02-01T05:20:23;60.35;;;55.22;;
25932;SDS011;13731;51.166;4.474;2023-02-01T05:22:49;63.35;;;57.13;;
25932;SDS011;13731;51.166;4.474;2023-02-01T05:25:16;62.70;;;57.22;;
25932;SDS011;13731;51.166;4.474;2023-02-01T05:27:42;72.20;;;66.78;;
25932;SDS011;13731;51.166;4.474;2023-02-01T05:30:08;60.72;;;55.80;;
25932;SDS011;13731;51.166;4.474;2023-02-01T05:32:37;68.30;;;62.83;;
25932;SDS011;13731;51.166;4.474;2023-02-01T05:35:03;61.13;;;56.08;;
25932;SDS011;13731;51.166;4.474;2023-02-01T05:37:29;63.28;;;57.85;;
25932;SDS011;13731;51.166;4.474;2023-02-01T05:39:55;62.30;;;57.08;;
25932;SDS011;13731;51.166;4.474;2023-02-01T05:42:21;77.22;;;71.82;;
25932;SDS011;13731;51.166;4.474;2023-02-01T05:44:47;65.03;;;60.08;;
25932;SDS011;13731;51.166;4.474;2023-02-01T05:47:13;99.30;;;92.20;;
25932;SDS011;13731;51.166;4.474;2023-02-01T05:49:39;69.97;;;65.13;;
25932;SDS011;13731;51.166;4.474;2023-02-01T05:52:04;75.32;;;68.82;;
25932;SDS011;13731;51.166;4.474;2023-02-01T05:54:30;70.55;;;65.00;;
25932;SDS011;13731;51.166;4.474;2023-02-01T05:56:56;74.10;;;68.18;;
25932;SDS011;13731;51.166;4.474;2023-02-01T05:59:22;88.07;;;81.55;;
25932;SDS011;13731;51.166;4.474;2023-02-01T06:01:48;87.75;;;81.07;;
25932;SDS011;13731;51.166;4.474;2023-02-01T06:04:14;69.82;;;64.15;;
25932;SDS011;13731;51.166;4.474;2023-02-01T06:06:40;69.43;;;63.65;;
25932;SDS011;13731;51.166;4.474;2023-02-01T06:09:06;84.93;;;78.40;;
25932;SDS011;13731;51.166;4.474;2023-02-01T06:11:31;73.28;;;67.50;;
25932;SDS011;13731;51.166;4.474;2023-02-01T06:13:57;77.75;;;72.53;;
25932;SDS011;13731;51.166;4.474;2023-02-01T06:16:24;78.30;;;73.10;;
25932;SDS011;13731;51.166;4.474;2023-02-01T06:18:50;71.43;;;66.15;;
25932;SDS011;13731;51.166;4.474;2023-02-01T06:21:16;79.30;;;73.75;;
25932;SDS011;13731;51.166;4.474;2023-02-01T06:23:54;68.13;;;62.97;;
25932;SDS011;13731;51.166;4.474;2023-02-01T06:26:22;64.85;;;59.83;;
25932;SDS011;13731;51.166;4.474;2023-02-01T06:28:48;73.18;;;66.50;;
25932;SDS011;13731;51.166;4.474;2023-02-01T06:31:14;66.72;;;61.75;;
25932;SDS011;13731;51.166;4.474;2023-02-01T06:33:43;67.95;;;62.28;;
25932;SDS011;13731;51.166;4.474;2023-02-01T06:36:11;67.78;;;62.50;;
25932;SDS011;13731;51.166;4.474;2023-02-01T06:38:41;72.45;;;67.18;;
25932;SDS011;13731;51.166;4.474;2023-02-01T06:41:07;74.85;;;68.70;;
25932;SDS011;13731;51.166;4.474;2023-02-01T06:43:33;73.00;;;66.57;;
25932;SDS011;13731;51.166;4.474;2023-02-01T06:46:03;78.22;;;72.75;;
25932;SDS011;13731;51.166;4.474;2023-02-01T06:48:31;68.50;;;62.90;;
25932;SDS011;13731;51.166;4.474;2023-02-01T06:50:58;67.00;;;62.20;;
25932;SDS011;13731;51.166;4.474;2023-02-01T06:53:24;68.60;;;63.22;;
25932;SDS011;13731;51.166;4.474;2023-02-01T06:56:00;81.15;;;75.30;;
25932;SDS011;13731;51.166;4.474;2023-02-01T06:58:28;71.47;;;65.53;;
25932;SDS011;13731;51.166;4.474;2023-02-01T07:00:56;71.43;;;65.47;;
25932;SDS011;13731;51.166;4.474;2023-02-01T07:03:22;74.13;;;68.40;;
25932;SDS011;13731;51.166;4.474;2023-02-01T07:05:49;91.55;;;84.93;;
25932;SDS011;13731;51.166;4.474;2023-02-01T07:08:15;81.03;;;74.60;;
25932;SDS011;13731;51.166;4.474;2023-02-01T07:10:41;89.50;;;82.38;;
25932;SDS011;13731;51.166;4.474;2023-02-01T07:13:07;77.07;;;70.75;;
25932;SDS011;13731;51.166;4.474;2023-02-01T07:15:33;76.97;;;71.40;;
25932;SDS011;13731;51.166;4.474;2023-02-01T07:17:59;74.88;;;69.50;;
25932;SDS011;13731;51.166;4.474;2023-02-01T07:20:25;77.30;;;71.13;;
25932;SDS011;13731;51.166;4.474;2023-02-01T07:22:54;74.95;;;69.40;;
25932;SDS011;13731;51.166;4.474;2023-02-01T07:25:22;102.60;;;95.70;;
25932;SDS011;13731;51.166;4.474;2023-02-01T07:27:48;85.82;;;79.82;;
25932;SDS011;13731;51.166;4.474;2023-02-01T07:30:14;89.97;;;82.82;;
25932;SDS011;13731;51.166;4.474;2023-02-01T07:32:40;96.65;;;90.03;;
25932;SDS011;13731;51.166;4.474;2023-02-01T07:35:05;114.97;;;106.47;;
25932;SDS011;13731;51.166;4.474;2023-02-01T07:37:32;116.88;;;108.97;;
25932;SDS011;13731;51.166;4.474;2023-02-01T07:39:57;120.85;;;113.45;;
25932;SDS011;13731;51.166;4.474;2023-02-01T07:42:23;126.43;;;117.68;;
25932;SDS011;13731;51.166;4.474;2023-02-01T07:44:49;149.73;;;141.07;;
25932;SDS011;13731;51.166;4.474;2023-02-01T07:47:15;154.60;;;144.27;;
25932;SDS011;13731;51.166;4.474;2023-02-01T07:49:41;132.32;;;124.25;;
25932;SDS011;13731;51.166;4.474;2023-02-01T07:52:06;126.55;;;118.13;;
25932;SDS011;13731;51.166;4.474;2023-02-01T07:54:32;134.07;;;125.78;;
25932;SDS011;13731;51.166;4.474;2023-02-01T07:56:58;126.22;;;118.32;;
25932;SDS011;13731;51.166;4.474;2023-02-01T07:59:24;144.95;;;136.63;;
25932;SDS011;13731;51.166;4.474;2023-02-01T08:01:50;163.38;;;152.85;;
25932;SDS011;13731;51.166;4.474;2023-02-01T08:04:16;132.75;;;124.25;;
25932;SDS011;13731;51.166;4.474;2023-02-01T08:06:42;131.57;;;124.03;;
25932;SDS011;13731;51.166;4.474;2023-02-01T08:09:08;137.30;;;128.18;;
25932;SDS011;13731;51.166;4.474;2023-02-01T08:11:35;179.70;;;166.82;;
25932;SDS011;13731;51.166;4.474;2023-02-01T08:14:03;128.15;;;120.47;;
25932;SDS011;13731;51.166;4.474;2023-02-01T08:16:30;122.53;;;114.47;;
25932;SDS011;13731;51.166;4.474;2023-02-01T08:18:56;163.15;;;152.73;;
25932;SDS011;13731;51.166;4.474;2023-02-01T08:21:25;119.65;;;111.30;;
25932;SDS011;13731;51.166;4.474;2023-02-01T08:24:01;110.53;;;103.82;;
25932;SDS011;13731;51.166;4.474;2023-02-01T08:26:28;103.93;;;96.07;;
25932;SDS011;13731;51.166;4.474;2023-02-01T08:28:55;107.15;;;100.35;;
25932;SDS011;13731;51.166;4.474;2023-02-01T08:31:25;103.88;;;97.70;;
25932;SDS011;13731;51.166;4.474;2023-02-01T08:33:53;109.45;;;102.15;;
25932;SDS011;13731;51.166;4.474;2023-02-01T08:36:21;101.97;;;94.57;;
25932;SDS011;13731;51.166;4.474;2023-02-01T08:38:48;93.22;;;86.32;;
25932;SDS011;13731;51.166;4.474;2023-02-01T08:41:15;119.50;;;111.43;;
25932;SDS011;13731;51.166;4.474;2023-02-01T08:43:42;120.38;;;112.40;;
25932;SDS011;13731;51.166;4.474;2023-02-01T08:46:09;107.63;;;99.60;;
25932;SDS011;13731;51.166;4.474;2023-02-01T08:48:36;98.25;;;91.60;;
25932;SDS011;13731;51.166;4.474;2023-02-01T08:51:03;110.10;;;102.93;;
25932;SDS011;13731;51.166;4.474;2023-02-01T08:53:32;102.25;;;95.60;;
25932;SDS011;13731;51.166;4.474;2023-02-01T08:55:58;95.40;;;89.07;;
25932;SDS011;13731;51.166;4.474;2023-02-01T08:58:24;104.63;;;98.18;;
25932;SDS011;13731;51.166;4.474;2023-02-01T09:00:50;114.22;;;106.18;;
25932;SDS011;13731;51.166;4.474;2023-02-01T09:03:16;100.97;;;93.57;;
25932;SDS011;13731;51.166;4.474;2023-02-01T09:05:42;93.13;;;86.00;;
25932;SDS011;13731;51.166;4.474;2023-02-01T09:08:08;88.95;;;82.70;;
25932;SDS011;13731;51.166;4.474;2023-02-01T09:10:34;81.38;;;74.95;;
25932;SDS011;13731;51.166;4.474;2023-02-01T09:13:01;84.97;;;78.68;;
25932;SDS011;13731;51.166;4.474;2023-02-01T09:15:28;77.75;;;72.38;;
25932;SDS011;13731;51.166;4.474;2023-02-01T09:17:54;78.10;;;72.53;;
25932;SDS011;13731;51.166;4.474;2023-02-01T09:20:20;76.20;;;69.93;;
25932;SDS011;13731;51.166;4.474;2023-02-01T09:22:51;96.00;;;89.43;;
25932;SDS011;13731;51.166;4.474;2023-02-01T09:25:17;95.47;;;87.50;;
25932;SDS011;13731;51.166;4.474;2023-02-01T09:27:44;92.10;;;83.70;;
25932;SDS011;13731;51.166;4.474;2023-02-01T09:30:10;89.25;;;82.78;;
25932;SDS011;13731;51.166;4.474;2023-02-01T09:32:36;74.32;;;68.57;;
25932;SDS011;13731;51.166;4.474;2023-02-01T09:35:02;77.80;;;71.68;;
25932;SDS011;13731;51.166;4.474;2023-02-01T09:37:28;75.88;;;70.32;;
25932;SDS011;13731;51.166;4.474;2023-02-01T09:39:54;72.63;;;67.00;;
25932;SDS011;13731;51.166;4.474;2023-02-01T09:47:59;85.97;;;79.07;;
25932;SDS011;13731;51.166;4.474;2023-02-01T10:01:43;56.28;;;51.38;;
25932;SDS011;13731;51.166;4.474;2023-02-01T10:04:11;67.38;;;62.08;;
25932;SDS011;13731;51.166;4.474;2023-02-01T10:09:49;50.60;;;46.03;;
25932;SDS011;13731;51.166;4.474;2023-02-01T10:15:30;52.80;;;48.63;;
25932;SDS011;13731;51.166;4.474;2023-02-01T10:27:35;75.97;;;70.40;;
25932;SDS011;13731;51.166;4.474;2023-02-01T10:36:04;85.15;;;79.53;;
25932;SDS011;13731;51.166;4.474;2023-02-01T10:38:31;97.40;;;91.20;;
25932;SDS011;13731;51.166;4.474;2023-02-01T10:41:02;88.35;;;82.32;;
25932;SDS011;13731;51.166;4.474;2023-02-01T10:43:36;87.57;;;81.70;;
25932;SDS011;13731;51.166;4.474;2023-02-01T10:46:04;88.13;;;82.18;;
25932;SDS011;13731;51.166;4.474;2023-02-01T10:48:32;92.10;;;85.97;;
25932;SDS011;13731;51.166;4.474;2023-02-01T10:53:53;63.20;;;58.88;;
25932;SDS011;13731;51.166;4.474;2023-02-01T10:56:26;43.55;;;40.42;;
25932;SDS011;13731;51.166;4.474;2023-02-01T10:58:59;47.35;;;44.03;;
25932;SDS011;13731;51.166;4.474;2023-02-01T11:04:00;46.47;;;42.95;;
25932;SDS011;13731;51.166;4.474;2023-02-01T11:11:33;41.70;;;38.80;;
25932;SDS011;13731;51.166;4.474;2023-02-01T11:19:56;37.42;;;34.83;;
25932;SDS011;13731;51.166;4.474;2023-02-01T11:22:24;35.20;;;32.35;;
25932;SDS011;13731;51.166;4.474;2023-02-01T11:24:53;48.05;;;44.65;;
25932;SDS011;13731;51.166;4.474;2023-02-01T11:27:20;70.30;;;64.68;;
25932;SDS011;13731;51.166;4.474;2023-02-01T11:32:22;38.40;;;35.42;;
25932;SDS011;13731;51.166;4.474;2023-02-01T11:34:54;73.50;;;68.07;;
25932;SDS011;13731;51.166;4.474;2023-02-01T11:37:28;46.03;;;42.20;;
25932;SDS011;13731;51.166;4.474;2023-02-01T11:40:01;43.25;;;40.22;;
25932;SDS011;13731;51.166;4.474;2023-02-01T11:42:54;36.60;;;33.78;;
25932;SDS011;13731;51.166;4.474;2023-02-01T11:45:29;36.53;;;33.53;;
25932;SDS011;13731;51.166;4.474;2023-02-01T11:47:57;41.28;;;38.42;;
25932;SDS011;13731;51.166;4.474;2023-02-01T11:50:28;44.65;;;41.25;;
25932;SDS011;13731;51.166;4.474;2023-02-01T12:06:56;38.30;;;35.33;;
25932;SDS011;13731;51.166;4.474;2023-02-01T12:12:34;34.58;;;31.92;;
25932;SDS011;13731;51.166;4.474;2023-02-01T12:15:36;53.30;;;48.65;;
25932;SDS011;13731;51.166;4.474;2023-02-01T12:18:27;39.90;;;37.15;;
25932;SDS011;13731;51.166;4.474;2023-02-01T12:21:18;83.60;;;78.10;;
25932;SDS011;13731;51.166;4.474;2023-02-01T12:28:08;95.57;;;89.50;;
25932;SDS011;13731;51.166;4.474;2023-02-01T12:30:14;147.65;;;137.07;;
25932;SDS011;13731;51.166;4.474;2023-02-01T12:38:48;42.67;;;39.63;;
25932;SDS011;13731;51.166;4.474;2023-02-01T12:41:33;61.08;;;56.80;;
25932;SDS011;13731;51.166;4.474;2023-02-01T12:49:41;57.72;;;53.58;;
25932;SDS011;13731;51.166;4.474;2023-02-01T12:52:11;80.03;;;74.22;;
25932;SDS011;13731;51.166;4.474;2023-02-01T12:54:47;38.40;;;35.42;;
25932;SDS011;13731;51.166;4.474;2023-02-01T12:57:28;43.03;;;39.80;;
25932;SDS011;13731;51.166;4.474;2023-02-01T13:00:02;71.90;;;66.93;;
25932;SDS011;13731;51.166;4.474;2023-02-01T13:02:44;43.47;;;40.10;;
25932;SDS011;13731;51.166;4.474;2023-02-01T13:08:32;36.60;;;34.00;;
25932;SDS011;13731;51.166;4.474;2023-02-01T13:11:20;47.10;;;43.83;;
25932;SDS011;13731;51.166;4.474;2023-02-01T13:16:44;40.70;;;37.53;;
25932;SDS011;13731;51.166;4.474;2023-02-01T13:21:40;61.83;;;57.53;;
25932;SDS011;13731;51.166;4.474;2023-02-01T13:24:17;260.90;;;237.52;;
25932;SDS011;13731;51.166;4.474;2023-02-01T13:26:55;51.30;;;47.47;;
25932;SDS011;13731;51.166;4.474;2023-02-01T13:32:02;55.83;;;52.55;;
25932;SDS011;13731;51.166;4.474;2023-02-01T13:38:09;213.40;;;195.90;;
25932;SDS011;13731;51.166;4.474;2023-02-01T13:43:01;119.55;;;112.20;;
25932;SDS011;13731;51.166;4.474;2023-02-01T13:45:49;108.20;;;101.28;;
25932;SDS011;13731;51.166;4.474;2023-02-01T13:48:19;60.78;;;56.63;;
25932;SDS011;13731;51.166;4.474;2023-02-01T13:51:01;80.63;;;75.93;;
25932;SDS011;13731;51.166;4.474;2023-02-01T13:53:28;96.32;;;90.78;;
25932;SDS011;13731;51.166;4.474;2023-02-01T13:56:03;130.82;;;121.97;;
25932;SDS011;13731;51.166;4.474;2023-02-01T13:58:50;93.82;;;88.45;;
25932;SDS011;13731;51.166;4.474;2023-02-01T14:04:02;85.03;;;79.90;;
25932;SDS011;13731;51.166;4.474;2023-02-01T14:11:50;82.20;;;77.07;;
25932;SDS011;13731;51.166;4.474;2023-02-01T14:17:29;132.30;;;123.18;;
25932;SDS011;13731;51.166;4.474;2023-02-01T14:19:36;113.60;;;105.40;;
25932;SDS011;13731;51.166;4.474;2023-02-01T14:24:53;143.70;;;134.65;;
25932;SDS011;13731;51.166;4.474;2023-02-01T14:27:22;106.32;;;99.70;;
25932;SDS011;13731;51.166;4.474;2023-02-01T14:29:58;109.40;;;102.72;;
25932;SDS011;13731;51.166;4.474;2023-02-01T14:32:39;111.53;;;105.00;;
25932;SDS011;13731;51.166;4.474;2023-02-01T14:35:28;108.78;;;101.97;;
25932;SDS011;13731;51.166;4.474;2023-02-01T14:37:54;96.00;;;90.28;;
25932;SDS011;13731;51.166;4.474;2023-02-01T14:40:27;105.60;;;98.93;;
25932;SDS011;13731;51.166;4.474;2023-02-01T14:42:54;230.90;;;212.85;;
25932;SDS011;13731;51.166;4.474;2023-02-01T14:50:40;101.25;;;95.47;;
25932;SDS011;13731;51.166;4.474;2023-02-01T14:55:41;109.47;;;103.30;;
25932;SDS011;13731;51.166;4.474;2023-02-01T14:58:13;159.60;;;150.10;;
25932;SDS011;13731;51.166;4.474;2023-02-01T15:01:03;137.43;;;129.55;;
25932;SDS011;13731;51.166;4.474;2023-02-01T15:03:36;111.43;;;104.80;;
25932;SDS011;13731;51.166;4.474;2023-02-01T15:06:04;190.63;;;179.48;;
25932;SDS011;13731;51.166;4.474;2023-02-01T15:08:39;107.07;;;100.78;;
25932;SDS011;13731;51.166;4.474;2023-02-01T15:11:09;106.43;;;100.15;;
25932;SDS011;13731;51.166;4.474;2023-02-01T15:13:40;96.93;;;90.70;;
25932;SDS011;13731;51.166;4.474;2023-02-01T15:16:13;97.00;;;91.18;;
25932;SDS011;13731;51.166;4.474;2023-02-01T15:18:40;167.45;;;156.52;;
25932;SDS011;13731;51.166;4.474;2023-02-01T15:21:13;117.90;;;110.05;;
25932;SDS011;13731;51.166;4.474;2023-02-01T15:23:42;115.22;;;108.63;;
25932;SDS011;13731;51.166;4.474;2023-02-01T15:26:07;115.03;;;108.80;;
25932;SDS011;13731;51.166;4.474;2023-02-01T15:28:33;96.57;;;89.30;;
25932;SDS011;13731;51.166;4.474;2023-02-01T15:31:03;107.75;;;101.18;;
25932;SDS011;13731;51.166;4.474;2023-02-01T15:33:31;82.07;;;76.65;;
25932;SDS011;13731;51.166;4.474;2023-02-01T15:38:34;153.73;;;144.60;;
25932;SDS011;13731;51.166;4.474;2023-02-01T15:43:32;133.75;;;126.07;;
25932;SDS011;13731;51.166;4.474;2023-02-01T15:46:02;157.40;;;147.65;;
25932;SDS011;13731;51.166;4.474;2023-02-01T15:48:35;89.38;;;84.00;;
25932;SDS011;13731;51.166;4.474;2023-02-01T15:51:31;81.68;;;76.18;;
25932;SDS011;13731;51.166;4.474;2023-02-01T15:54:06;93.03;;;86.55;;
25932;SDS011;13731;51.166;4.474;2023-02-01T15:56:39;88.97;;;82.68;;
25932;SDS011;13731;51.166;4.474;2023-02-01T15:59:12;92.45;;;86.55;;
25932;SDS011;13731;51.166;4.474;2023-02-01T16:01:42;134.85;;;126.75;;
25932;SDS011;13731;51.166;4.474;2023-02-01T16:04:18;77.93;;;72.78;;
25932;SDS011;13731;51.166;4.474;2023-02-01T16:06:56;105.05;;;98.05;;
25932;SDS011;13731;51.166;4.474;2023-02-01T16:09:35;99.10;;;92.60;;
25932;SDS011;13731;51.166;4.474;2023-02-01T16:12:17;80.72;;;75.25;;
25932;SDS011;13731;51.166;4.474;2023-02-01T16:15:04;74.57;;;69.53;;
25932;SDS011;13731;51.166;4.474;2023-02-01T16:17:30;95.38;;;88.55;;
25932;SDS011;13731;51.166;4.474;2023-02-01T16:19:56;95.45;;;88.47;;
25932;SDS011;13731;51.166;4.474;2023-02-01T16:22:23;157.23;;;146.07;;
25932;SDS011;13731;51.166;4.474;2023-02-01T16:24:49;113.80;;;105.68;;
25932;SDS011;13731;51.166;4.474;2023-02-01T16:27:15;107.03;;;100.78;;
25932;SDS011;13731;51.166;4.474;2023-02-01T16:29:41;76.93;;;71.60;;
25932;SDS011;13731;51.166;4.474;2023-02-01T16:32:11;79.43;;;73.43;;
25932;SDS011;13731;51.166;4.474;2023-02-01T16:34:44;67.93;;;63.22;;
25932;SDS011;13731;51.166;4.474;2023-02-01T16:37:12;74.18;;;67.90;;
25932;SDS011;13731;51.166;4.474;2023-02-01T16:39:42;73.45;;;67.70;;
25932;SDS011;13731;51.166;4.474;2023-02-01T16:42:11;83.82;;;77.72;;
25932;SDS011;13731;51.166;4.474;2023-02-01T16:44:38;66.60;;;62.15;;
25932;SDS011;13731;51.166;4.474;2023-02-01T16:47:09;95.60;;;89.32;;
25932;SDS011;13731;51.166;4.474;2023-02-01T16:49:47;69.18;;;64.10;;
25932;SDS011;13731;51.166;4.474;2023-02-01T16:52:14;80.60;;;74.75;;
25932;SDS011;13731;51.166;4.474;2023-02-01T16:54:43;72.20;;;67.43;;
25932;SDS011;13731;51.166;4.474;2023-02-01T16:57:13;82.30;;;76.82;;
25932;SDS011;13731;51.166;4.474;2023-02-01T16:59:41;71.57;;;66.95;;
25932;SDS011;13731;51.166;4.474;2023-02-01T17:02:11;86.65;;;80.43;;
25932;SDS011;13731;51.166;4.474;2023-02-01T17:04:39;66.57;;;61.90;;
25932;SDS011;13731;51.166;4.474;2023-02-01T17:07:05;68.50;;;63.38;;
25932;SDS011;13731;51.166;4.474;2023-02-01T17:09:37;68.72;;;64.30;;
25932;SDS011;13731;51.166;4.474;2023-02-01T17:14:32;70.63;;;65.32;;
25932;SDS011;13731;51.166;4.474;2023-02-01T17:17:04;66.63;;;61.08;;
25932;SDS011;13731;51.166;4.474;2023-02-01T17:19:30;64.80;;;59.75;;
25932;SDS011;13731;51.166;4.474;2023-02-01T17:21:57;71.78;;;66.82;;